Time;durP1;ratioP1;P1;durP2;ratioP2;P2;SDS_P1;SDS_P2;PMS_P1;PMS_P2;Temp;Humidity;BMP_temperature;BMP_pressure;BME280_temperature;BME280_humidity;BME280_pressure;Samples;Min_cycle;Max_cycle;Signal;HPM_P1;HPM_P2
2024/03/03 00:01:15;;;;;;;11.50;6.30;;;;;;;7.49;100.00;100106.97;5074456;28;20437;-66
2024/03/03 00:03:42;;;;;;;12.20;5.57;;;;;;;7.51;100.00;100107.47;5074444;28;20458;-68
2024/03/03 00:06:08;;;;;;;8.40;5.10;;;;;;;7.55;100.00;100100.41;5074319;28;20459;-67
2024/03/03 00:08:35;;;;;;;15.03;6.63;;;;;;;7.54;100.00;100093.44;5074438;28;20473;-67
2024/03/03 00:11:02;;;;;;;11.50;6.37;;;;;;;7.60;100.00;100092.25;5073740;28;20517;-66
2024/03/03 00:13:31;;;;;;;9.40;5.47;;;;;;;7.66;100.00;100090.25;5074302;28;20465;-67
2024/03/03 00:15:58;;;;;;;15.33;8.00;;;;;;;7.76;100.00;100092.81;5074203;28;20476;-67
2024/03/03 00:18:25;;;;;;;26.33;5.60;;;;;;;7.81;100.00;100098.13;5074233;28;20532;-67
2024/03/03 00:20:51;;;;;;;14.20;5.63;;;;;;;7.84;100.00;100090.25;5074332;28;20465;-67
2024/03/03 00:23:18;;;;;;;12.97;6.17;;;;;;;7.91;100.00;100089.06;5073879;28;20853;-67
2024/03/03 00:25:45;;;;;;;21.43;7.67;;;;;;;7.97;100.00;100088.69;5073973;28;20814;-67
2024/03/03 00:28:11;;;;;;;11.43;6.27;;;;;;;8.02;100.00;100090.50;5074030;28;20929;-67
2024/03/03 00:30:39;;;;;;;10.43;6.00;;;;;;;8.03;100.00;100086.72;5074250;28;20503;-66
2024/03/03 00:33:06;;;;;;;10.70;5.83;;;;;;;8.07;100.00;100087.72;5074005;28;20453;-66
2024/03/03 00:35:33;;;;;;;8.30;4.93;;;;;;;8.11;100.00;100083.34;5073922;28;20445;-66
2024/03/03 00:37:59;;;;;;;12.40;6.30;;;;;;;8.16;100.00;100080.53;5074384;28;20528;-66
2024/03/03 00:40:26;;;;;;;11.07;5.47;;;;;;;8.22;100.00;100084.72;5073905;28;20883;-67
2024/03/03 00:42:53;;;;;;;7.97;4.77;;;;;;;8.27;100.00;100075.75;5073617;28;20548;-67
2024/03/03 00:45:19;;;;;;;12.50;6.23;;;;;;;8.27;100.00;100083.84;5073489;28;20516;-66
2024/03/03 00:47:48;;;;;;;18.90;6.47;;;;;;;8.29;100.00;100068.97;5073961;28;20786;-66
2024/03/03 00:50:15;;;;;;;14.07;6.90;;;;;;;8.34;100.00;100076.97;5073969;28;20794;-66
2024/03/03 00:52:41;;;;;;;14.20;7.30;;;;;;;8.39;100.00;100070.69;5074152;28;20461;-67
2024/03/03 00:55:09;;;;;;;15.43;7.07;;;;;;;8.41;100.00;100068.53;5084034;22;20584;-68
2024/03/03 00:57:36;;;;;;;10.40;5.57;;;;;;;8.47;100.00;100072.72;5053811;28;20480;-71
2024/03/03 01:00:03;;;;;;;12.03;6.80;;;;;;;8.45;100.00;100063.31;5053321;28;20496;-71
2024/03/03 01:02:31;;;;;;;11.07;6.80;;;;;;;8.47;100.00;100063.81;5053541;28;20462;-71
2024/03/03 01:04:59;;;;;;;11.70;6.43;;;;;;;8.48;100.00;100051.91;5053086;28;20445;-71
2024/03/03 01:07:25;;;;;;;18.20;7.17;;;;;;;8.49;100.00;100056.19;5053047;28;20453;-71
2024/03/03 01:09:52;;;;;;;9.93;5.50;;;;;;;8.48;100.00;100062.72;5053065;28;20488;-71
2024/03/03 01:12:18;;;;;;;17.07;7.57;;;;;;;8.47;100.00;100055.72;5053933;28;20494;-71
2024/03/03 01:14:45;;;;;;;16.10;6.57;;;;;;;8.47;100.00;100061.13;5053336;28;20572;-71
2024/03/03 01:17:12;;;;;;;23.20;7.40;;;;;;;8.44;100.00;100056.31;5052974;28;20452;-71
2024/03/03 01:19:38;;;;;;;17.20;7.10;;;;;;;8.42;100.00;100064.72;5053266;28;20500;-71
2024/03/03 01:22:07;;;;;;;10.87;5.43;;;;;;;8.43;100.00;100060.13;5053538;28;20966;-71
2024/03/03 01:24:33;;;;;;;10.60;5.63;;;;;;;8.46;100.00;100063.03;5052965;28;20484;-71
2024/03/03 01:27:00;;;;;;;19.73;8.60;;;;;;;8.48;100.00;100068.91;5053277;28;20437;-71
2024/03/03 01:29:27;;;;;;;14.40;6.53;;;;;;;8.45;100.00;100077.59;5052950;28;20945;-71
2024/03/03 01:31:54;;;;;;;14.87;8.33;;;;;;;8.46;100.00;100075.72;5052834;28;20799;-71
2024/03/03 01:34:22;;;;;;;17.37;6.77;;;;;;;8.47;100.00;100071.91;5053358;28;20489;-71
2024/03/03 01:36:49;;;;;;;15.10;7.73;;;;;;;8.44;100.00;100072.50;5053122;28;20442;-71
2024/03/03 01:39:17;;;;;;;14.97;7.90;;;;;;;8.44;100.00;100073.28;5052728;28;20977;-71
2024/03/03 01:41:45;;;;;;;12.30;6.60;;;;;;;8.44;100.00;100077.91;5053004;28;20853;-71
2024/03/03 01:44:12;;;;;;;15.97;6.97;;;;;;;8.41;100.00;100079.31;5053251;28;20442;-71
2024/03/03 01:46:39;;;;;;;18.80;7.50;;;;;;;8.37;100.00;100080.19;5053098;28;20521;-71
2024/03/03 01:49:06;;;;;;;9.73;5.47;;;;;;;8.34;100.00;100071.56;5053314;28;20812;-71
2024/03/03 01:51:33;;;;;;;13.77;6.03;;;;;;;8.31;100.00;100068.66;5052877;28;20565;-71
2024/03/03 01:54:00;;;;;;;14.23;8.20;;;;;;;8.31;100.00;100068.66;5054076;28;20489;-71
2024/03/03 01:56:30;;;;;;;19.00;7.83;;;;;;;8.31;100.00;100064.06;5056421;28;20528;-71
2024/03/03 01:58:59;;;;;;;15.60;8.13;;;;;;;8.27;100.00;100065.75;5057143;28;20527;-72
2024/03/03 02:01:28;;;;;;;11.87;6.77;;;;;;;8.24;100.00;100062.88;5056654;28;20437;-71
2024/03/03 02:03:55;;;;;;;14.90;6.40;;;;;;;8.23;100.00;100063.94;5056558;28;20468;-71
2024/03/03 02:06:24;;;;;;;13.53;6.17;;;;;;;8.22;100.00;100070.44;5056251;28;20438;-71
2024/03/03 02:08:50;;;;;;;15.13;7.83;;;;;;;8.22;100.00;100060.44;5056585;28;20529;-71
2024/03/03 02:11:17;;;;;;;18.77;8.80;;;;;;;8.27;100.00;100067.66;5056818;28;20489;-71
2024/03/03 02:13:45;;;;;;;13.90;6.30;;;;;;;8.28;100.00;100058.47;5056710;28;20528;-71
2024/03/03 02:16:12;;;;;;;16.77;6.73;;;;;;;8.27;100.00;100065.75;5056663;28;20532;-71
2024/03/03 02:18:38;;;;;;;19.87;9.13;;;;;;;8.26;100.00;100064.16;5056498;28;20529;-71
2024/03/03 02:21:05;;;;;;;15.13;7.17;;;;;;;8.23;100.00;100059.34;5056304;28;20942;-71
2024/03/03 02:23:33;;;;;;;23.13;7.80;;;;;;;8.25;100.00;100059.06;5056527;28;20541;-71
2024/03/03 02:26:00;;;;;;;13.70;6.73;;;;;;;8.23;100.00;100048.56;5056556;28;20448;-71
2024/03/03 02:28:28;;;;;;;18.27;7.63;;;;;;;8.23;100.00;100051.25;5055805;28;20965;-71
2024/03/03 02:30:54;;;;;;;17.53;8.00;;;;;;;8.25;100.00;100053.69;5056619;28;20826;-71
2024/03/03 02:33:21;;;;;;;24.47;8.90;;;;;;;8.27;100.00;100051.47;5056039;28;20813;-71
2024/03/03 02:35:48;;;;;;;15.87;7.10;;;;;;;8.23;100.00;100050.47;5056042;28;20434;-71
2024/03/03 02:38:14;;;;;;;19.20;7.00;;;;;;;8.26;100.00;100047.97;5056599;28;20512;-71
2024/03/03 02:40:42;;;;;;;18.27;8.60;;;;;;;8.26;100.00;100044.47;5055574;28;20446;-71
2024/03/03 02:43:09;;;;;;;14.30;8.57;;;;;;;8.27;100.00;100041.47;5056195;28;20490;-71
2024/03/03 02:45:36;;;;;;;17.63;9.10;;;;;;;8.25;100.00;100038.28;5056154;28;20523;-71
2024/03/03 02:48:02;;;;;;;17.63;8.30;;;;;;;8.25;100.00;100042.88;5055735;28;20621;-71
2024/03/03 02:50:29;;;;;;;16.73;8.00;;;;;;;8.22;100.00;100043.47;5055607;28;20540;-71
2024/03/03 02:52:56;;;;;;;19.00;8.77;;;;;;;8.19;100.00;100044.88;5055587;28;20460;-70
2024/03/03 02:55:22;;;;;;;15.67;7.83;;;;;;;8.17;100.00;100041.66;5055377;28;20474;-70
2024/03/03 02:57:49;;;;;;;20.37;8.83;;;;;;;8.15;100.00;100043.88;5055899;28;20434;-70
2024/03/03 03:00:16;;;;;;;15.07;7.50;;;;;;;8.14;100.00;100041.47;5055842;28;20438;-69
2024/03/03 03:02:43;;;;;;;18.23;8.70;;;;;;;8.10;100.00;100041.25;5055924;28;20459;-71
2024/03/03 03:05:10;;;;;;;19.23;9.20;;;;;;;8.12;100.00;100047.16;5055268;28;20450;-71
2024/03/03 03:07:36;;;;;;;10.83;5.90;;;;;;;8.12;100.00;100043.66;5055627;28;20434;-71
2024/03/03 03:10:03;;;;;;;13.13;6.93;;;;;;;8.08;100.00;100046.16;5055197;28;20457;-71
2024/03/03 03:12:29;;;;;;;17.63;6.83;;;;;;;8.08;100.00;100048.84;5055402;28;20486;-71
2024/03/03 03:14:57;;;;;;;16.00;7.77;;;;;;;8.04;100.00;100048.63;5055358;28;20437;-71
2024/03/03 03:17:24;;;;;;;21.93;8.53;;;;;;;8.05;100.00;100035.94;5055203;28;20474;-71
2024/03/03 03:19:51;;;;;;;16.53;8.07;;;;;;;8.00;100.00;100028.75;5055212;28;20541;-71
2024/03/03 03:22:17;;;;;;;16.30;7.17;;;;;;;8.02;100.00;100045.44;5055443;28;20788;-71
2024/03/03 03:24:44;;;;;;;21.00;7.73;;;;;;;8.04;100.00;100037.06;5055361;28;20470;-71
2024/03/03 03:27:10;;;;;;;21.13;8.37;;;;;;;8.02;100.00;100037.38;5054796;28;20450;-71
2024/03/03 03:29:37;;;;;;;18.60;9.10;;;;;;;8.03;100.00;100040.84;5055070;28;20945;-71
2024/03/03 03:32:06;;;;;;;16.80;8.43;;;;;;;8.02;100.00;100036.56;5054501;28;20490;-70
2024/03/03 03:34:33;;;;;;;13.50;8.03;;;;;;;8.05;100.00;100039.44;5054893;28;20541;-71
2024/03/03 03:37:00;;;;;;;20.67;7.00;;;;;;;8.05;100.00;100033.25;5054839;28;20478;-71
2024/03/03 03:39:27;;;;;;;12.30;7.27;;;;;;;8.03;100.00;100028.16;5054610;28;20440;-71
2024/03/03 03:41:55;;;;;;;15.30;7.73;;;;;;;8.06;100.00;100024.88;5055212;28;20445;-71
2024/03/03 03:44:22;;;;;;;13.57;7.87;;;;;;;8.04;100.00;100027.06;5055054;28;20444;-71
2024/03/03 03:46:49;;;;;;;17.33;6.73;;;;;;;8.03;100.00;100035.47;5054343;28;20477;-71
2024/03/03 03:49:17;;;;;;;19.57;9.10;;;;;;;8.02;100.00;100039.25;5054580;28;20438;-71
2024/03/03 03:51:43;;;;;;;12.80;6.70;;;;;;;8.02;100.00;100028.47;5054672;28;20482;-71
2024/03/03 03:54:10;;;;;;;15.77;8.30;;;;;;;8.01;100.00;100027.69;5054736;28;20534;-71
2024/03/03 03:56:37;;;;;;;15.50;6.40;;;;;;;8.02;100.00;100026.56;5054182;28;20481;-71
2024/03/03 03:59:04;;;;;;;17.90;7.50;;;;;;;8.01;100.00;100024.97;5054477;28;20446;-70
2024/03/03 04:01:30;;;;;;;15.20;8.40;;;;;;;8.02;100.00;100018.47;5054382;28;20478;-70
2024/03/03 04:03:58;;;;;;;19.17;7.97;;;;;;;8.01;100.00;100022.28;5053918;28;20489;-70
2024/03/03 04:06:28;;;;;;;17.90;8.23;;;;;;;8.00;100.00;100022.56;5053994;28;20499;-71
2024/03/03 04:08:54;;;;;;;18.03;8.00;;;;;;;8.01;100.00;100027.69;5053924;28;20473;-70
2024/03/03 04:11:21;;;;;;;11.20;7.17;;;;;;;8.01;100.00;100022.28;5053778;28;20547;-70
2024/03/03 04:13:49;;;;;;;24.53;9.10;;;;;;;8.02;100.00;100021.19;5054076;28;20462;-70
2024/03/03 04:16:15;;;;;;;17.40;8.90;;;;;;;8.04;100.00;100021.66;5053536;28;20493;-70
2024/03/03 04:18:42;;;;;;;18.60;8.37;;;;;;;8.07;100.00;100017.59;5054071;28;20492;-70
2024/03/03 04:21:09;;;;;;;18.37;7.90;;;;;;;8.08;100.00;100025.38;5053673;28;21023;-70
2024/03/03 04:23:37;;;;;;;15.47;7.53;;;;;;;8.12;100.00;100022.09;5053512;28;20550;-70
2024/03/03 04:26:05;;;;;;;15.87;7.90;;;;;;;8.09;100.00;100018.88;5053897;28;20469;-70
2024/03/03 04:28:32;;;;;;;16.37;6.90;;;;;;;8.15;100.00;100018.81;5053842;28;20438;-71
2024/03/03 04:30:59;;;;;;;14.37;7.93;;;;;;;8.18;100.00;100010.09;5053952;28;20843;-70
2024/03/03 04:33:25;;;;;;;15.67;6.93;;;;;;;8.20;100.00;100016.81;5053679;28;20472;-70
2024/03/03 04:35:52;;;;;;;17.93;8.33;;;;;;;8.19;100.00;100020.59;5053440;28;20922;-71
2024/03/03 04:38:19;;;;;;;19.30;9.03;;;;;;;8.21;100.00;100015.69;5053718;28;20860;-71
2024/03/03 04:40:47;;;;;;;16.90;6.60;;;;;;;8.22;100.00;100011.88;5053662;28;20876;-71
2024/03/03 04:43:14;;;;;;;17.73;7.70;;;;;;;8.23;100.00;100018.88;5053622;28;20509;-71
2024/03/03 04:45:40;;;;;;;14.77;8.17;;;;;;;8.26;100.00;100012.91;5053854;28;20903;-71
2024/03/03 04:48:07;;;;;;;17.53;6.97;;;;;;;8.26;100.00;100018.28;5053928;28;20525;-70
2024/03/03 04:50:34;;;;;;;15.77;8.47;;;;;;;8.30;100.00;100013.91;5053710;28;20934;-70
2024/03/03 04:53:00;;;;;;;15.80;8.67;;;;;;;8.32;100.00;100017.13;5053517;28;20460;-70
2024/03/03 04:55:27;;;;;;;19.10;8.70;;;;;;;8.35;100.00;100021.88;5053235;28;20488;-70
2024/03/03 04:57:56;;;;;;;20.50;8.40;;;;;;;8.38;100.00;100019.75;5053218;28;20814;-71
2024/03/03 05:00:22;;;;;;;16.80;7.20;;;;;;;8.38;100.00;100015.13;5053779;28;20529;-70
2024/03/03 05:02:49;;;;;;;16.23;8.83;;;;;;;8.41;100.00;100016.41;5053047;28;20793;-70
2024/03/03 05:05:16;;;;;;;17.47;8.33;;;;;;;8.43;100.00;100012.34;5053390;28;20438;-70
2024/03/03 05:07:43;;;;;;;20.10;9.07;;;;;;;8.44;100.00;100013.94;5053729;28;20523;-70
2024/03/03 05:10:10;;;;;;;18.53;9.80;;;;;;;8.47;100.00;100015.22;5053387;28;20446;-70
2024/03/03 05:12:37;;;;;;;14.13;7.20;;;;;;;8.53;100.00;100022.13;5053150;28;20518;-70
2024/03/03 05:15:06;;;;;;;13.43;8.13;;;;;;;8.53;100.00;100016.72;5053394;28;20525;-70
2024/03/03 05:17:32;;;;;;;17.37;9.23;;;;;;;8.55;100.00;100014.53;5053327;28;20466;-70
2024/03/03 05:19:59;;;;;;;15.43;8.30;;;;;;;8.55;100.00;100017.22;5053867;28;20474;-70
2024/03/03 05:22:25;;;;;;;18.27;7.53;;;;;;;8.57;100.00;100017.72;5053245;28;20457;-70
2024/03/03 05:24:52;;;;;;;15.23;8.83;;;;;;;8.57;100.00;100023.91;5053268;28;20442;-70
2024/03/03 05:27:19;;;;;;;15.87;8.40;;;;;;;8.58;100.00;100025.50;5053599;28;20450;-70
2024/03/03 05:29:45;;;;;;;18.20;9.60;;;;;;;8.57;100.00;100034.72;5055660;28;21005;-73
2024/03/03 05:32:13;;;;;;;11.70;7.33;;;;;;;8.58;100.00;100030.91;5057061;28;20482;-77
2024/03/03 05:34:40;;;;;;;18.70;7.17;;;;;;;8.58;100.00;100033.59;5056907;28;20438;-71
2024/03/03 05:37:07;;;;;;;20.27;8.00;;;;;;;8.61;100.00;100037.63;5057051;28;20446;-71
2024/03/03 05:39:33;;;;;;;17.80;8.83;;;;;;;8.62;100.00;100033.00;5057072;28;20434;-71
2024/03/03 05:42:00;;;;;;;20.83;8.67;;;;;;;8.63;100.00;100030.00;5057042;28;20486;-71
2024/03/03 05:44:28;;;;;;;20.10;8.57;;;;;;;8.65;100.00;100035.13;5057319;28;20872;-71
2024/03/03 05:46:54;;;;;;;20.73;8.70;;;;;;;8.67;100.00;100031.00;5057179;28;20442;-71
2024/03/03 05:49:22;;;;;;;15.63;8.47;;;;;;;8.69;100.00;100039.59;5057004;28;21030;-71
2024/03/03 05:51:49;;;;;;;19.30;10.07;;;;;;;8.71;100.00;100045.50;5056744;28;20488;-71
2024/03/03 05:54:15;;;;;;;12.87;7.63;;;;;;;8.74;100.00;100041.41;5057354;28;20458;-71
2024/03/03 05:56:42;;;;;;;19.90;9.53;;;;;;;8.76;100.00;100039.97;5057024;28;20446;-71
2024/03/03 05:59:08;;;;;;;19.20;8.37;;;;;;;8.81;100.00;100042.59;5057255;28;20434;-71
2024/03/03 06:01:35;;;;;;;13.87;7.37;;;;;;;8.84;100.00;100039.28;5056968;28;20524;-71
2024/03/03 06:04:02;;;;;;;17.67;8.30;;;;;;;8.89;100.00;100046.47;5056600;28;20466;-71
2024/03/03 06:06:30;;;;;;;17.50;8.60;;;;;;;8.93;100.00;100042.06;5056679;28;20450;-71
2024/03/03 06:08:56;;;;;;;18.87;8.80;;;;;;;8.99;100.00;100045.47;5056727;28;20495;-71
2024/03/03 06:11:23;;;;;;;20.17;9.97;;;;;;;9.02;100.00;100042.16;5056630;28;20485;-71
2024/03/03 06:13:50;;;;;;;25.37;11.27;;;;;;;9.05;100.00;100049.66;5056413;28;20537;-70
2024/03/03 06:16:16;;;;;;;24.53;10.80;;;;;;;9.06;100.00;100053.94;5057075;28;20767;-71
2024/03/03 06:18:43;;;;;;;20.43;8.37;;;;;;;9.06;100.00;100056.66;5056391;28;20476;-71
2024/03/03 06:21:10;;;;;;;20.70;9.47;;;;;;;9.08;100.00;100060.66;5056778;28;20442;-71
2024/03/03 06:23:38;;;;;;;17.30;8.90;;;;;;;9.10;100.00;100053.03;5055904;28;20878;-71
2024/03/03 06:26:05;;;;;;;19.93;8.50;;;;;;;9.12;100.00;100055.44;5056242;28;20853;-71
2024/03/03 06:28:32;;;;;;;21.10;8.63;;;;;;;9.13;100.00;100058.94;5056048;28;20500;-71
2024/03/03 06:30:58;;;;;;;19.53;9.47;;;;;;;9.15;100.00;100054.81;5056131;28;20439;-71
2024/03/03 06:33:26;;;;;;;18.50;9.87;;;;;;;9.18;100.00;100053.44;5056056;28;20469;-71
2024/03/03 06:35:52;;;;;;;16.50;9.20;;;;;;;9.21;100.00;100059.03;5056095;28;20446;-71
2024/03/03 06:38:19;;;;;;;20.63;10.93;;;;;;;9.23;100.00;100051.41;5056357;28;20526;-71
2024/03/03 06:40:48;;;;;;;18.57;9.60;;;;;;;9.29;100.00;100052.06;5056054;28;20478;-71
2024/03/03 06:43:15;;;;;;;18.27;8.30;;;;;;;9.34;100.00;100060.06;5056102;28;20500;-71
2024/03/03 06:45:42;;;;;;;17.70;8.37;;;;;;;9.39;100.00;100065.38;5055932;28;20521;-70
2024/03/03 06:48:08;;;;;;;19.00;9.27;;;;;;;9.45;100.00;100063.34;5055537;28;20533;-70
2024/03/03 06:50:35;;;;;;;16.67;9.23;;;;;;;9.52;100.00;100063.72;5056119;28;20918;-70
2024/03/03 06:53:02;;;;;;;19.50;8.83;;;;;;;9.58;100.00;100059.78;5055653;28;20518;-70
2024/03/03 06:55:28;;;;;;;16.87;10.87;;;;;;;9.62;100.00;100059.97;5079369;22;20622;-65
2024/03/03 06:57:58;;;;;;;23.13;11.60;;;;;;;9.68;100.00;100062.25;5076023;28;20875;-65
2024/03/03 07:00:25;;;;;;;23.07;10.87;;;;;;;9.74;100.00;100052.91;5075545;28;20528;-66
2024/03/03 07:03:12;;;;;;;16.17;7.73;;;;;;;9.79;100.00;100050.06;5075790;28;20481;-66
2024/03/03 07:05:39;;;;;;;24.20;10.50;;;;;;;9.82;100.00;100062.16;5075557;28;20457;-66
2024/03/03 07:08:06;;;;;;;18.77;9.17;;;;;;;9.89;100.00;100056.34;5075730;28;20443;-65
2024/03/03 07:10:33;;;;;;;27.93;10.53;;;;;;;9.93;100.00;100054.59;5075645;28;20487;-66
2024/03/03 07:13:01;;;;;;;24.43;11.83;;;;;;;9.97;100.00;100063.72;5075047;28;20867;-66
2024/03/03 07:15:28;;;;;;;22.00;10.30;;;;;;;10.03;100.00;100048.94;5076113;28;20853;-65
2024/03/03 07:17:54;;;;;;;24.63;10.50;;;;;;;10.10;100.00;100052.78;5075131;28;20936;-65
2024/03/03 07:20:21;;;;;;;23.60;11.13;;;;;;;10.14;100.00;100055.69;5075005;28;20528;-65
2024/03/03 07:22:48;;;;;;;27.60;11.67;;;;;;;10.18;100.00;100062.06;5075230;28;20485;-65
2024/03/03 07:25:14;;;;;;;22.57;11.00;;;;;;;10.22;100.00;100059.53;5074878;28;21016;-66
2024/03/03 07:27:41;;;;;;;23.67;10.40;;;;;;;10.24;100.00;100058.16;5074715;28;20815;-66
2024/03/03 07:30:11;;;;;;;23.60;11.27;;;;;;;10.31;100.00;100063.91;5075673;28;20471;-66
2024/03/03 07:32:40;;;;;;;26.93;11.50;;;;;;;10.34;100.00;100057.06;5074467;28;20535;-66
2024/03/03 07:35:08;;;;;;;22.77;11.60;;;;;;;10.39;100.00;100062.34;5075121;28;20444;-66
2024/03/03 07:37:34;;;;;;;26.23;11.67;;;;;;;10.45;100.00;100063.03;5074750;28;20507;-66
2024/03/03 07:40:01;;;;;;;24.93;10.70;;;;;;;10.43;100.00;100062.50;5074506;28;20440;-66
2024/03/03 07:42:27;;;;;;;26.97;12.33;;;;;;;10.50;100.00;100060.97;5074392;28;21048;-67
2024/03/03 07:44:54;;;;;;;27.40;12.10;;;;;;;10.62;100.00;100065.75;5074955;28;20445;-66
2024/03/03 07:47:22;;;;;;;28.07;12.40;;;;;;;10.71;100.00;100058.47;5074594;28;20445;-66
2024/03/03 07:49:49;;;;;;;30.73;12.70;;;;;;;10.77;100.00;100059.94;5074992;28;20443;-66
2024/03/03 07:52:15;;;;;;;31.47;14.20;;;;;;;10.81;100.00;100054.69;5073168;28;20572;-66
2024/03/03 07:54:42;;;;;;;22.23;11.77;;;;;;;10.83;100.00;100064.06;5074776;28;20458;-66
2024/03/03 07:57:09;;;;;;;26.67;11.83;;;;;;;10.84;100.00;100054.03;5074596;28;20461;-66
2024/03/03 07:59:35;;;;;;;24.87;12.37;;;;;;;10.81;100.00;100062.81;5074906;28;20445;-66
2024/03/03 08:02:02;;;;;;;23.63;13.00;;;;;;;10.84;100.00;100060.25;5074267;28;21044;-66
2024/03/03 08:04:30;;;;;;;25.73;12.67;;;;;;;10.94;100.00;100064.59;5074374;28;20437;-66
2024/03/03 08:06:57;;;;;;;27.83;11.40;;;;;;;10.98;100.00;100065.56;5074295;28;20480;-66
2024/03/03 08:09:23;;;;;;;26.93;12.70;;;;;;;11.00;100.00;100065.22;5074591;28;20437;-66
2024/03/03 08:11:50;;;;;;;23.27;11.60;;;;;;;11.07;100.00;100068.28;5073662;28;20559;-65
2024/03/03 08:14:16;;;;;;;27.47;13.13;;;;;;;11.07;100.00;100069.06;5074129;28;20520;-65
2024/03/03 08:16:43;;;;;;;25.47;12.37;;;;;;;11.12;100.00;100065.41;5073658;28;20477;-66
2024/03/03 08:19:10;;;;;;;21.83;9.27;;;;;;;11.17;100.00;100067.16;5074541;28;20862;-66
2024/03/03 08:21:38;;;;;;;32.90;13.23;;;;;;;11.14;100.00;100068.59;5074000;28;20440;-66
2024/03/03 08:24:05;;;;;;;23.50;11.00;;;;;;;11.14;100.00;100057.75;5074091;28;20480;-65
2024/03/03 08:26:32;;;;;;;24.40;10.90;;;;;;;11.18;100.00;100050.56;5074232;28;20477;-65
2024/03/03 08:28:59;;;;;;;29.17;12.43;;;;;;;11.24;100.00;100046.59;5074020;28;20472;-65
2024/03/03 08:31:26;;;;;;;21.47;10.17;;;;;;;11.24;100.00;100051.22;5073810;28;20477;-66
2024/03/03 08:33:53;;;;;;;19.80;10.90;;;;;;;11.18;100.00;100056.00;5073751;28;20985;-65
2024/03/03 08:36:19;;;;;;;25.20;10.70;;;;;;;11.20;100.00;100048.38;5074266;28;20441;-65
2024/03/03 08:38:47;;;;;;;22.83;10.30;;;;;;;11.23;100.00;100052.34;5073786;28;20483;-65
2024/03/03 08:41:14;;;;;;;28.33;12.67;;;;;;;11.23;100.00;100047.69;5073353;28;21015;-65
2024/03/03 08:43:40;;;;;;;26.53;12.57;;;;;;;11.28;100.00;100047.53;5073866;28;20536;-65
2024/03/03 08:46:07;;;;;;;21.97;11.90;;;;;;;11.32;100.00;100048.50;5073246;28;20941;-66
2024/03/03 08:48:33;;;;;;;22.87;10.87;;;;;;;11.44;100.00;100049.78;5073636;28;20520;-66
2024/03/03 08:51:00;;;;;;;25.67;12.13;;;;;;;11.53;100.00;100047.88;5073905;28;20528;-66
2024/03/03 08:53:27;;;;;;;19.23;10.90;;;;;;;11.51;100.00;100047.38;5073480;28;20485;-66
2024/03/03 08:55:55;;;;;;;21.10;11.80;;;;;;;11.54;100.00;100044.03;5073593;28;20460;-66
2024/03/03 08:58:21;;;;;;;26.33;12.20;;;;;;;11.63;100.00;100050.25;5073471;28;20449;-67
2024/03/03 09:00:48;;;;;;;25.70;10.97;;;;;;;11.69;100.00;100046.25;5073453;28;20444;-66
2024/03/03 09:03:15;;;;;;;22.83;10.90;;;;;;;11.72;100.00;100045.59;5072829;28;20825;-68
2024/03/03 09:05:41;;;;;;;24.57;11.90;;;;;;;11.76;100.00;100040.34;5073450;28;20444;-68
2024/03/03 09:08:08;;;;;;;25.93;12.00;;;;;;;11.82;100.00;100042.59;5073141;28;20945;-68
2024/03/03 09:10:35;;;;;;;16.07;9.80;;;;;;;11.87;100.00;100038.91;5073596;28;20469;-67
2024/03/03 09:13:04;;;;;;;19.63;9.87;;;;;;;11.86;100.00;100035.41;5073198;28;20575;-69
2024/03/03 09:15:30;;;;;;;18.63;10.60;;;;;;;11.94;100.00;100027.56;5072987;28;20884;-68
2024/03/03 09:17:57;;;;;;;17.00;9.10;;;;;;;12.02;100.00;100026.72;5073418;28;20492;-68
2024/03/03 09:20:24;;;;;;;26.30;14.23;;;;;;;12.06;100.00;100035.81;5073461;28;20444;-67
2024/03/03 09:22:50;;;;;;;16.73;8.80;;;;;;;12.12;100.00;100034.53;5072909;28;20957;-69
2024/03/03 09:25:18;;;;;;;21.87;11.77;;;;;;;12.23;100.00;100034.97;5073652;28;20437;-68
2024/03/03 09:27:45;;;;;;;21.33;10.30;;;;;;;12.27;99.53;100028.56;5073275;28;20456;-68
2024/03/03 09:30:13;;;;;;;18.83;9.27;;;;;;;12.29;98.16;100037.16;5073252;28;20449;-69
2024/03/03 09:32:40;;;;;;;25.60;10.30;;;;;;;12.34;98.02;100036.97;5073352;28;20481;-68
2024/03/03 09:35:07;;;;;;;21.20;9.77;;;;;;;12.33;97.73;100027.25;5073184;28;20516;-68
2024/03/03 09:37:34;;;;;;;23.50;9.93;;;;;;;12.39;97.73;100036.00;5073208;28;20495;-67
2024/03/03 09:40:01;;;;;;;20.00;11.30;;;;;;;12.45;97.17;100026.56;5073119;28;20438;-67
2024/03/03 09:42:28;;;;;;;20.90;9.77;;;;;;;12.50;97.02;100029.09;5072960;28;20481;-67
2024/03/03 09:44:58;;;;;;;16.47;8.97;;;;;;;12.57;96.48;100031.28;5073037;28;20524;-67
2024/03/03 09:47:28;;;;;;;21.53;9.30;;;;;;;12.62;95.52;100017.53;5073057;28;20446;-67
2024/03/03 09:49:56;;;;;;;16.03;7.90;;;;;;;12.69;94.31;100020.50;5073013;28;20449;-67
2024/03/03 09:52:25;;;;;;;14.93;7.67;;;;;;;12.78;94.03;100020.47;5073370;28;20491;-67
2024/03/03 09:54:51;;;;;;;16.27;7.67;;;;;;;12.83;91.94;100021.06;5072773;28;20461;-67
2024/03/03 09:57:19;;;;;;;14.63;7.17;;;;;;;12.89;91.22;100027.13;5073486;28;20500;-67
2024/03/03 09:59:51;;;;;;;12.97;7.90;;;;;;;12.92;91.00;100031.09;5073004;28;20467;-67
2024/03/03 10:02:20;;;;;;;17.27;6.83;;;;;;;12.97;90.61;100017.28;5073341;28;20461;-67
2024/03/03 10:04:49;;;;;;;11.50;6.20;;;;;;;13.01;88.13;100023.66;5073043;28;20956;-67
2024/03/03 10:07:22;;;;;;;13.17;6.43;;;;;;;13.05;87.92;100019.94;5073274;28;20516;-66
2024/03/03 10:09:55;;;;;;;12.23;6.63;;;;;;;13.12;86.79;100019.44;5073583;28;20895;-68
2024/03/03 10:12:23;;;;;;;14.97;7.23;;;;;;;13.22;87.44;100018.22;5072920;28;20652;-67
2024/03/03 10:14:55;;;;;;;12.70;5.53;;;;;;;13.21;86.50;100019.38;5073999;28;20876;-67
2024/03/03 10:17:21;;;;;;;9.27;5.70;;;;;;;13.27;85.64;100020.78;5076468;28;20445;-67
2024/03/03 10:19:49;;;;;;;11.50;6.30;;;;;;;13.31;84.46;100016.25;5076783;28;20445;-67
2024/03/03 10:22:19;;;;;;;18.07;5.50;;;;;;;13.38;84.13;100011.88;5076270;28;20492;-67
2024/03/03 10:24:46;;;;;;;14.30;5.50;;;;;;;13.40;83.07;100016.97;5076219;28;20438;-67
2024/03/03 10:27:16;;;;;;;8.30;4.77;;;;;;;13.45;81.86;100008.59;5076292;28;21028;-67
2024/03/03 10:29:43;;;;;;;10.27;4.77;;;;;;;13.53;82.33;99998.78;5076126;28;20441;-67
2024/03/03 10:32:11;;;;;;;12.63;4.70;;;;;;;13.64;81.88;100002.69;5076266;28;20466;-67
2024/03/03 10:34:37;;;;;;;6.83;4.20;;;;;;;13.79;82.02;99999.31;5076353;28;20834;-67
2024/03/03 10:37:07;;;;;;;12.80;6.00;;;;;;;13.82;81.19;99995.91;5076035;28;20877;-67
2024/03/03 10:39:34;;;;;;;9.67;5.37;;;;;;;13.86;79.41;99999.56;5076372;28;20445;-67
2024/03/03 10:42:01;;;;;;;8.60;4.00;;;;;;;13.90;79.43;100002.41;5076185;28;20552;-67
2024/03/03 10:44:28;;;;;;;9.70;4.37;;;;;;;13.95;78.07;100004.91;5076258;28;20791;-67
2024/03/03 10:46:54;;;;;;;10.80;5.30;;;;;;;13.97;78.57;100002.63;5075872;28;20936;-67
2024/03/03 10:49:21;;;;;;;13.60;5.37;;;;;;;13.96;78.43;99992.88;5075898;28;20528;-67
2024/03/03 10:51:48;;;;;;;7.60;4.20;;;;;;;14.03;78.59;99995.84;5075741;28;20437;-67
2024/03/03 10:54:18;;;;;;;8.80;4.30;;;;;;;14.09;78.53;99996.41;5075619;28;20477;-67
2024/03/03 10:56:45;;;;;;;9.90;4.60;;;;;;;14.26;78.28;99996.22;5075327;28;20457;-67
2024/03/03 10:59:12;;;;;;;9.10;4.53;;;;;;;14.46;77.12;99990.97;5075616;28;20794;-67
2024/03/03 11:01:40;;;;;;;9.30;4.47;;;;;;;14.65;77.29;99991.19;5075534;28;20532;-67
2024/03/03 11:04:06;;;;;;;8.70;4.40;;;;;;;14.80;75.73;99987.78;5076038;28;20468;-68
2024/03/03 11:06:33;;;;;;;7.30;3.50;;;;;;;14.81;71.65;99983.91;5075489;28;20470;-69
2024/03/03 11:09:01;;;;;;;9.43;4.00;;;;;;;14.80;72.04;99993.25;5075714;28;20528;-66
2024/03/03 11:11:33;;;;;;;9.47;3.57;;;;;;;14.79;72.49;99986.19;5075399;28;20583;-67
2024/03/03 11:14:04;;;;;;;7.87;4.30;;;;;;;14.75;71.23;99985.31;5075239;28;20481;-67